Time;durP1;ratioP1;P1;durP2;ratioP2;P2;SDS_P1;SDS_P2;PMS_P1;PMS_P2;Temp;Humidity;BMP_temperature;BMP_pressure;BME280_temperature;BME280_humidity;BME280_pressure;Samples;Min_cycle;Max_cycle;Signal;HPM_P1;HPM_P2
2022/06/02 00:01:52;;;;;;;1.73;1.50;;;15.20;54.10;;;;;;5098734;28;20408;-45
2022/06/02 00:04:43;;;;;;;2.07;1.47;;;15.10;54.20;;;;;;5099009;28;20833;-46
2022/06/02 00:07:49;;;;;;;2.50;1.60;;;15.10;54.20;;;;;;5098665;28;20851;-46
2022/06/02 00:10:15;;;;;;;1.90;1.53;;;15.10;54.50;;;;;;5016249;28;20490;-46
2022/06/02 00:12:47;;;;;;;1.90;1.30;;;15.00;54.50;;;;;;5016573;28;20418;-45
2022/06/02 00:15:13;;;;;;;2.60;1.83;;;15.00;54.60;;;;;;5048502;28;20237;-45
2022/06/02 00:18:04;;;;;;;1.43;1.17;;;14.90;54.70;;;;;;5098295;28;20518;-45
2022/06/02 00:20:44;;;;;;;6.90;1.90;;;14.90;55.00;;;;;;5098566;28;20178;-45
2022/06/02 00:23:28;;;;;;;2.40;1.30;;;14.90;55.10;;;;;;5098210;28;20509;-45
2022/06/02 00:26:28;;;;;;;4.80;1.83;;;14.90;55.10;;;;;;5098140;28;20678;-46
2022/06/02 00:29:09;;;;;;;3.17;1.60;;;14.80;55.30;;;;;;5096915;28;20467;-45
2022/06/02 00:31:58;;;;;;;4.50;1.80;;;14.80;55.30;;;;;;5097950;28;20446;-45
2022/06/02 00:34:54;;;;;;;2.00;1.40;;;14.70;55.30;;;;;;5096788;28;20414;-45
2022/06/02 00:37:41;;;;;;;1.80;1.50;;;14.70;55.40;;;;;;5097116;28;20432;-45
2022/06/02 00:40:07;;;;;;;2.27;1.33;;;14.70;55.50;;;;;;5095744;28;20411;-45
2022/06/02 00:42:39;;;;;;;3.03;1.57;;;14.70;55.70;;;;;;5097571;28;20831;-45
2022/06/02 00:45:11;;;;;;;2.00;1.53;;;14.70;55.70;;;;;;5096565;28;20955;-46
2022/06/02 00:47:51;;;;;;;1.63;1.53;;;14.60;55.80;;;;;;5097982;28;20828;-45
2022/06/02 00:50:33;;;;;;;2.13;1.30;;;14.60;55.90;;;;;;5097697;28;20903;-45
2022/06/02 00:53:26;;;;;;;1.97;1.77;;;14.50;56.00;;;;;;5096723;28;20415;-45
2022/06/02 00:59:02;;;;;;;3.40;1.70;;;14.50;56.10;;;;;;5095680;28;20409;-45
2022/06/02 01:01:31;;;;;;;3.53;1.63;;;14.40;56.30;;;;;;5097945;28;20709;-46
2022/06/02 01:03:59;;;;;;;2.50;1.53;;;14.40;56.50;;;;;;5097681;28;20417;-45
2022/06/02 01:06:24;;;;;;;2.20;1.43;;;14.30;56.80;;;;;;5097779;28;20432;-45
2022/06/02 01:09:01;;;;;;;3.60;1.97;;;14.30;57.00;;;;;;5097992;28;20746;-45
2022/06/02 01:11:52;;;;;;;2.53;1.53;;;14.20;57.10;;;;;;5096727;28;20255;-45
2022/06/02 01:14:34;;;;;;;5.07;1.70;;;14.20;57.20;;;;;;5099199;28;20523;-45
2022/06/02 01:17:19;;;;;;;3.40;1.67;;;14.20;57.40;;;;;;5101169;28;20829;-46
2022/06/02 01:20:11;;;;;;;2.00;1.77;;;14.20;57.60;;;;;;5101992;28;20441;-45
2022/06/02 01:23:15;;;;;;;1.80;1.50;;;14.20;57.90;;;;;;5100913;28;20415;-45
2022/06/02 01:25:49;;;;;;;2.90;1.63;;;14.20;58.00;;;;;;5101189;28;20418;-45
2022/06/02 01:28:53;;;;;;;3.13;1.63;;;14.20;58.00;;;;;;5100453;28;20843;-46
2022/06/02 01:31:48;;;;;;;2.47;1.60;;;14.20;58.40;;;;;;5101456;28;20439;-45
2022/06/02 01:34:13;;;;;;;2.37;1.60;;;14.20;58.70;;;;;;5100976;28;20661;-46
2022/06/02 01:36:50;;;;;;;2.00;1.80;;;14.20;58.90;;;;;;5100850;28;20426;-45
2022/06/02 01:39:34;;;;;;;2.60;1.83;;;14.20;58.80;;;;;;5101128;28;20176;-45
2022/06/02 01:42:34;;;;;;;2.40;1.80;;;14.30;58.90;;;;;;5100320;28;20923;-45
2022/06/02 01:45:20;;;;;;;2.23;1.77;;;14.20;59.00;;;;;;5067819;28;20415;-46
2022/06/02 01:47:50;;;;;;;2.50;1.43;;;14.20;59.00;;;;;;5100192;28;20421;-45
2022/06/02 01:51:08;;;;;;;3.40;1.70;;;14.10;59.00;;;;;;5100941;28;20479;-45
2022/06/02 01:54:10;;;;;;;3.00;1.70;;;14.20;59.20;;;;;;5019293;28;20829;-45
2022/06/02 01:56:51;;;;;;;2.23;1.87;;;14.10;59.50;;;;;;5100992;28;20456;-45
2022/06/02 01:59:20;;;;;;;1.77;1.40;;;14.10;59.50;;;;;;5100616;28;20410;-45
2022/06/02 02:01:51;;;;;;;1.90;1.70;;;14.10;59.50;;;;;;5100933;28;20423;-45
2022/06/02 02:04:36;;;;;;;2.40;1.60;;;14.00;59.50;;;;;;5101223;28;20445;-44
2022/06/02 02:07:16;;;;;;;2.20;1.70;;;14.00;59.90;;;;;;5099594;28;20420;-45
2022/06/02 02:09:48;;;;;;;2.73;1.80;;;14.00;60.20;;;;;;5100331;28;20442;-44
2022/06/02 02:12:58;;;;;;;1.70;1.43;;;14.00;60.70;;;;;;5099702;28;20482;-45
2022/06/02 02:15:56;;;;;;;3.27;1.90;;;13.90;60.80;;;;;;5099048;28;20468;-45
2022/06/02 02:18:41;;;;;;;1.90;1.50;;;13.90;61.10;;;;;;5089032;28;20452;-45
2022/06/02 02:21:37;;;;;;;2.00;1.70;;;14.00;61.50;;;;;;5099727;28;20429;-45
2022/06/02 02:24:33;;;;;;;2.30;1.60;;;13.90;61.50;;;;;;5100435;28;20506;-45
2022/06/02 02:27:17;;;;;;;2.60;1.57;;;13.90;62.30;;;;;;5082404;28;20753;-45
2022/06/02 02:30:07;;;;;;;5.23;1.80;;;13.80;62.60;;;;;;5099832;28;20537;-45
2022/06/02 02:32:45;;;;;;;1.97;1.80;;;13.80;62.90;;;;;;5088977;28;20504;-45
2022/06/02 02:35:27;;;;;;;3.20;1.67;;;13.80;63.60;;;;;;5100141;28;20692;-45
2022/06/02 02:38:13;;;;;;;1.97;1.77;;;13.70;63.60;;;;;;5099382;28;20739;-45
2022/06/02 02:41:05;;;;;;;2.10;1.70;;;13.70;64.10;;;;;;5089693;28;20448;-45
2022/06/02 02:44:07;;;;;;;2.00;1.90;;;13.70;64.60;;;;;;5077712;28;20451;-44
2022/06/02 02:46:54;;;;;;;2.80;1.57;;;13.60;64.90;;;;;;5079657;28;20580;-45
2022/06/02 02:49:50;;;;;;;3.40;2.20;;;13.60;65.10;;;;;;5079460;28;20459;-45
2022/06/02 02:52:46;;;;;;;1.80;1.60;;;13.60;65.40;;;;;;5079468;28;20593;-45
2022/06/02 02:55:30;;;;;;;1.80;1.60;;;13.50;65.90;;;;;;5079345;28;20427;-45
2022/06/02 02:58:17;;;;;;;3.10;1.80;;;13.50;66.30;;;;;;5079878;28;20403;-45
2022/06/02 03:01:28;;;;;;;2.43;1.90;;;13.50;66.80;;;;;;5078350;28;20597;-45
2022/06/02 03:04:15;;;;;;;2.17;1.90;;;13.50;67.60;;;;;;4997802;28;20430;-45
2022/06/02 03:06:42;;;;;;;2.53;2.07;;;13.40;68.10;;;;;;4981864;28;20454;-45
2022/06/02 03:09:39;;;;;;;2.60;1.60;;;13.40;68.50;;;;;;5049359;28;20447;-45
2022/06/02 03:12:28;;;;;;;2.70;1.73;;;13.40;69.30;;;;;;5096137;28;20430;-45
2022/06/02 03:15:03;;;;;;;3.90;1.87;;;13.40;69.60;;;;;;5097487;28;20415;-45
2022/06/02 03:17:37;;;;;;;3.13;2.20;;;13.30;70.00;;;;;;5097894;28;20711;-45
2022/06/02 03:20:21;;;;;;;2.40;2.20;;;13.30;70.70;;;;;;5097672;28;20887;-45
2022/06/02 03:23:07;;;;;;;2.93;1.90;;;13.20;70.90;;;;;;5096891;28;20573;-45
2022/06/02 03:25:56;;;;;;;3.10;1.60;;;13.20;71.50;;;;;;5096299;28;20471;-45
2022/06/02 03:28:41;;;;;;;2.33;1.60;;;13.20;72.30;;;;;;5095465;28;20474;-45
2022/06/02 03:31:19;;;;;;;2.50;1.97;;;13.20;72.70;;;;;;5095104;28;20857;-45
2022/06/02 03:34:12;;;;;;;3.43;2.03;;;13.20;72.80;;;;;;5096253;28;20418;-45
2022/06/02 03:36:58;;;;;;;2.67;1.87;;;13.20;73.40;;;;;;5095049;28;20524;-45
2022/06/02 03:39:39;;;;;;;2.30;2.10;;;13.20;73.60;;;;;;5095204;28;20662;-45
2022/06/02 03:42:16;;;;;;;2.07;1.80;;;13.20;74.20;;;;;;5095987;28;20436;-45
2022/06/02 03:44:51;;;;;;;2.60;1.37;;;13.30;74.40;;;;;;5095800;28;20407;-45
2022/06/02 03:47:40;;;;;;;1.97;1.50;;;13.30;74.00;;;;;;5095932;28;20689;-45
2022/06/02 03:50:18;;;;;;;2.43;1.77;;;13.30;74.00;;;;;;5096799;28;20458;-45
2022/06/02 03:52:59;;;;;;;2.10;1.90;;;13.30;74.60;;;;;;5096693;28;20427;-45
2022/06/02 03:55:40;;;;;;;2.00;1.80;;;13.30;74.90;;;;;;5097050;28;20441;-45
2022/06/02 03:58:16;;;;;;;3.87;2.27;;;13.40;74.80;;;;;;5097858;28;20419;-44
2022/06/02 04:00:52;;;;;;;2.57;1.60;;;13.40;74.90;;;;;;5097063;28;20436;-45
2022/06/02 04:03:48;;;;;;;1.87;1.67;;;13.40;74.60;;;;;;5096565;28;20666;-45
2022/06/02 04:06:35;;;;;;;2.27;1.63;;;13.50;74.60;;;;;;5095987;28;20426;-45
2022/06/02 04:09:19;;;;;;;2.73;2.07;;;13.50;74.70;;;;;;5094682;28;20412;-45
2022/06/02 04:15:17;;;;;;;2.67;1.90;;;13.60;75.00;;;;;;5093510;28;20398;-46
2022/06/02 04:18:10;;;;;;;2.50;1.80;;;13.70;75.00;;;;;;5094951;28;20403;-45
2022/06/02 04:21:14;;;;;;;3.50;1.77;;;13.80;74.80;;;;;;5095478;28;20519;-45
2022/06/02 04:23:48;;;;;;;3.67;2.00;;;13.80;74.10;;;;;;5095294;28;20414;-45
2022/06/02 04:26:42;;;;;;;2.50;1.73;;;13.90;74.00;;;;;;5095360;28;20455;-45
2022/06/02 04:29:26;;;;;;;3.27;2.00;;;14.00;74.00;;;;;;5055206;28;20801;-45
2022/06/02 04:31:56;;;;;;;2.40;1.83;;;14.00;74.00;;;;;;5055877;28;20421;-45
2022/06/02 04:34:40;;;;;;;2.43;2.20;;;14.10;73.90;;;;;;5054499;28;20839;-44
2022/06/02 04:37:31;;;;;;;3.90;2.00;;;14.20;73.90;;;;;;5055412;28;20511;-45
2022/06/02 04:40:00;;;;;;;4.50;2.30;;;14.30;73.30;;;;;;5054136;28;20448;-45
2022/06/02 04:42:43;;;;;;;2.07;1.80;;;14.40;72.70;;;;;;5054333;28;20447;-45
2022/06/02 04:45:22;;;;;;;2.20;2.00;;;14.50;72.30;;;;;;5054070;28;20459;-45
2022/06/02 04:47:52;;;;;;;2.23;1.80;;;14.70;72.00;;;;;;5052980;28;20424;-45
2022/06/02 04:50:25;;;;;;;2.30;2.10;;;14.80;71.10;;;;;;5054192;28;20463;-45
2022/06/02 04:53:12;;;;;;;3.07;1.60;;;14.90;70.70;;;;;;5055092;28;20689;-45
2022/06/02 04:55:51;;;;;;;2.13;1.57;;;15.10;70.30;;;;;;5056010;28;20413;-46
2022/06/02 04:58:58;;;;;;;2.13;1.70;;;15.20;70.40;;;;;;5037684;28;20416;-46
2022/06/02 05:01:51;;;;;;;3.37;2.13;;;15.30;69.20;;;;;;5053702;28;20482;-45
2022/06/02 05:04:27;;;;;;;2.77;2.20;;;15.40;68.60;;;;;;5034612;28;20425;-44
2022/06/02 05:07:01;;;;;;;2.27;2.07;;;15.40;67.90;;;;;;5053757;28;20489;-45
2022/06/02 05:09:51;;;;;;;2.30;1.67;;;15.40;67.30;;;;;;5051800;28;20460;-45
2022/06/02 05:12:37;;;;;;;2.60;1.83;;;15.40;67.90;;;;;;5052671;28;20415;-45
2022/06/02 05:15:14;;;;;;;3.30;2.10;;;15.50;67.70;;;;;;5054276;28;20666;-45
2022/06/02 05:18:09;;;;;;;2.80;1.97;;;15.50;67.50;;;;;;5052439;28;20422;-45
2022/06/02 05:20:53;;;;;;;1.90;1.70;;;15.60;67.40;;;;;;5051476;28;20421;-45
2022/06/02 05:23:26;;;;;;;6.30;2.07;;;15.70;67.10;;;;;;5051530;28;20698;-45
2022/06/02 05:26:08;;;;;;;3.30;1.90;;;15.80;67.00;;;;;;5051566;28;20441;-45
2022/06/02 05:29:00;;;;;;;3.07;1.80;;;15.80;66.00;;;;;;5082208;28;20630;-45
2022/06/02 05:31:44;;;;;;;2.17;1.97;;;15.90;66.10;;;;;;5088641;28;20440;-45
2022/06/02 05:34:34;;;;;;;2.30;1.87;;;16.00;66.10;;;;;;5092169;28;20398;-45
2022/06/02 05:37:16;;;;;;;2.17;1.67;;;16.00;64.80;;;;;;5091145;28;20665;-45
2022/06/02 05:39:53;;;;;;;3.27;1.93;;;16.10;64.50;;;;;;5090689;28;20421;-45
2022/06/02 05:42:31;;;;;;;3.07;1.80;;;16.20;64.70;;;;;;5072830;28;20698;-46
2022/06/02 05:45:15;;;;;;;2.63;1.90;;;16.30;64.60;;;;;;5090108;28;20407;-45
2022/06/02 05:47:51;;;;;;;1.93;1.83;;;16.50;63.80;;;;;;5090312;28;20399;-46
2022/06/02 05:50:44;;;;;;;2.63;2.27;;;16.80;63.30;;;;;;5091547;28;20461;-46
2022/06/02 05:53:38;;;;;;;2.10;1.90;;;17.10;60.60;;;;;;5079888;28;20423;-46
2022/06/02 05:56:03;;;;;;;4.00;2.17;;;17.30;59.30;;;;;;5092496;28;20492;-46
2022/06/02 05:58:43;;;;;;;1.60;1.50;;;17.40;58.90;;;;;;5093367;28;20409;-46
2022/06/02 06:01:11;;;;;;;2.37;2.17;;;17.50;59.30;;;;;;5096319;28;20182;-45
2022/06/02 06:03:59;;;;;;;4.50;1.90;;;17.80;59.20;;;;;;5094201;28;20517;-46
2022/06/02 06:06:42;;;;;;;2.80;2.00;;;18.00;58.90;;;;;;5095474;28;20414;-46
2022/06/02 06:09:28;;;;;;;3.93;2.33;;;18.10;57.50;;;;;;5096062;28;20401;-46
2022/06/02 06:12:05;;;;;;;2.53;2.07;;;18.10;55.90;;;;;;5094638;28;20499;-45
2022/06/02 06:14:59;;;;;;;3.53;1.80;;;17.90;55.50;;;;;;5095410;28;20417;-45
2022/06/02 06:17:45;;;;;;;4.53;2.50;;;17.90;55.80;;;;;;5091892;28;20858;-46
2022/06/02 06:20:43;;;;;;;3.97;2.30;;;17.90;55.30;;;;;;5086069;28;20735;-45
2022/06/02 06:23:30;;;;;;;3.70;1.87;;;17.80;55.10;;;;;;5096680;28;20420;-46
2022/06/02 06:26:13;;;;;;;2.30;1.60;;;17.80;55.10;;;;;;5096971;28;20454;-46
2022/06/02 06:29:20;;;;;;;2.43;2.07;;;18.00;55.40;;;;;;5095922;28;20512;-46
2022/06/02 06:32:04;;;;;;;2.57;1.90;;;18.10;54.50;;;;;;5096819;28;20480;-46
2022/06/02 06:34:56;;;;;;;2.80;2.30;;;18.10;54.50;;;;;;5097892;28;20556;-46
2022/06/02 06:37:58;;;;;;;4.20;2.67;;;18.20;54.00;;;;;;5095294;28;20717;-46
2022/06/02 06:40:28;;;;;;;2.20;2.00;;;18.30;54.10;;;;;;5096180;28;20423;-46
2022/06/02 06:43:03;;;;;;;2.80;1.70;;;18.40;54.00;;;;;;5094275;28;20463;-46
2022/06/02 06:46:05;;;;;;;2.90;1.60;;;18.60;54.30;;;;;;5096209;28;20460;-46
2022/06/02 06:48:43;;;;;;;2.07;1.90;;;18.80;54.00;;;;;;5066663;28;20430;-46
2022/06/02 06:51:17;;;;;;;2.40;2.07;;;19.10;53.10;;;;;;5096686;28;21004;-46
2022/06/02 06:54:21;;;;;;;3.20;2.10;;;19.40;52.70;;;;;;5095791;28;20530;-46
2022/06/02 06:57:05;;;;;;;3.03;2.00;;;19.70;52.50;;;;;;5096089;28;20428;-46
2022/06/02 06:59:53;;;;;;;3.00;2.23;;;20.10;51.70;;;;;;5095865;28;20407;-45
2022/06/02 07:02:58;;;;;;;2.70;2.30;;;20.30;50.70;;;;;;5095832;28;20430;-45
2022/06/02 07:05:27;;;;;;;3.37;1.90;;;20.20;50.60;;;;;;5095388;28;20416;-45
2022/06/02 07:08:24;;;;;;;2.90;2.00;;;20.30;50.70;;;;;;5096009;28;20506;-45
2022/06/02 07:10:53;;;;;;;2.97;1.80;;;20.40;50.40;;;;;;5093170;28;20795;-45
2022/06/02 07:13:26;;;;;;;6.67;2.43;;;20.70;50.20;;;;;;5092533;28;20402;-46
2022/06/02 07:16:17;;;;;;;3.77;2.10;;;20.50;49.00;;;;;;5094473;28;20431;-45
2022/06/02 07:19:01;;;;;;;2.47;1.93;;;20.40;49.20;;;;;;5092851;28;20828;-48
2022/06/02 07:22:05;;;;;;;2.73;2.10;;;20.40;49.60;;;;;;5092644;28;20411;-44
2022/06/02 07:24:44;;;;;;;5.40;2.30;;;20.60;49.70;;;;;;5012061;28;20463;-44
2022/06/02 07:27:49;;;;;;;3.90;2.43;;;20.70;49.00;;;;;;5011430;28;20473;-43
2022/06/02 07:30:34;;;;;;;6.00;2.20;;;20.70;48.20;;;;;;5072806;28;20474;-48
2022/06/02 07:33:35;;;;;;;2.90;2.43;;;20.50;48.70;;;;;;5093555;28;20699;-42
2022/06/02 07:36:22;;;;;;;2.50;2.30;;;20.30;49.20;;;;;;4993691;28;20471;-44
2022/06/02 07:38:54;;;;;;;4.83;1.90;;;20.10;49.30;;;;;;5089300;28;20414;-44
2022/06/02 07:41:38;;;;;;;5.20;2.27;;;20.10;50.40;;;;;;5094000;28;20556;-44
2022/06/02 07:44:22;;;;;;;2.83;1.43;;;20.40;53.70;;;;;;5094530;28;20416;-46
2022/06/02 07:47:15;;;;;;;4.30;1.97;;;20.80;53.70;;;;;;5094075;28;20471;-47
2022/06/02 07:49:41;;;;;;;3.00;1.60;;;21.10;53.50;;;;;;5092987;28;20797;-46
2022/06/02 07:52:22;;;;;;;2.53;1.83;;;21.40;52.50;;;;;;5095065;28;20463;-46
2022/06/02 07:54:57;;;;;;;5.00;1.97;;;21.80;52.40;;;;;;5095999;28;20482;-45
2022/06/02 07:57:47;;;;;;;4.70;2.63;;;22.20;50.60;;;;;;5093471;28;20460;-44
2022/06/02 08:00:18;;;;;;;4.30;2.10;;;22.40;49.40;;;;;;5093021;28;20433;-46
2022/06/02 08:03:04;;;;;;;1.80;1.50;;;22.70;50.10;;;;;;5094057;28;20419;-44
2022/06/02 08:05:51;;;;;;;3.40;1.87;;;23.00;49.10;;;;;;5095567;28;20425;-43
2022/06/02 08:08:43;;;;;;;2.93;1.97;;;23.30;47.70;;;;;;5094852;28;20781;-43
2022/06/02 08:11:21;;;;;;;2.63;2.00;;;23.70;47.40;;;;;;5093265;28;20481;-44
2022/06/02 08:14:15;;;;;;;4.07;2.17;;;24.10;46.20;;;;;;5093515;28;20467;-45
2022/06/02 08:16:53;;;;;;;2.67;1.93;;;24.50;45.90;;;;;;5094656;28;20414;-44
2022/06/02 08:19:24;;;;;;;2.40;2.20;;;25.00;45.10;;;;;;5094752;28;20458;-46
2022/06/02 08:21:59;;;;;;;7.43;2.43;;;25.40;44.50;;;;;;5093157;28;20437;-43
2022/06/02 08:24:49;;;;;;;2.73;1.70;;;25.70;43.80;;;;;;5091449;28;20422;-45
2022/06/02 08:27:34;;;;;;;3.10;1.90;;;26.00;43.50;;;;;;5093260;28;20470;-49
2022/06/02 08:30:18;;;;;;;2.40;2.20;;;26.40;42.80;;;;;;5093850;28;20469;-46
2022/06/02 08:33:17;;;;;;;2.60;2.10;;;26.00;40.40;;;;;;5095010;28;20486;-49
2022/06/02 08:35:59;;;;;;;2.77;1.80;;;25.60;40.70;;;;;;5095488;28;20430;-45
2022/06/02 08:38:43;;;;;;;2.20;1.83;;;25.10;41.40;;;;;;5091942;28;20452;-46
2022/06/02 08:41:36;;;;;;;4.27;1.80;;;24.80;42.10;;;;;;5095226;28;20438;-47
2022/06/02 08:44:05;;;;;;;3.70;1.87;;;24.60;41.70;;;;;;5093916;28;20414;-46
2022/06/02 08:47:14;;;;;;;3.10;1.73;;;24.80;41.90;;;;;;5094860;28;20441;-44
2022/06/02 08:50:15;;;;;;;2.60;1.60;;;25.30;41.50;;;;;;5094698;28;20933;-44
2022/06/02 08:52:58;;;;;;;2.27;1.97;;;25.50;40.70;;;;;;5081268;28;20425;-45
2022/06/02 08:56:01;;;;;;;1.87;1.63;;;25.70;40.50;;;;;;5095129;28;20439;-44
2022/06/02 08:59:07;;;;;;;2.10;1.70;;;26.10;40.90;;;;;;5094533;28;20850;-44
2022/06/02 09:01:52;;;;;;;3.10;2.07;;;26.50;39.60;;;;;;5092909;28;20426;-43
2022/06/02 09:04:38;;;;;;;2.33;1.60;;;26.80;40.20;;;;;;5094877;28;20408;-45
2022/06/02 09:07:07;;;;;;;2.17;1.80;;;27.30;39.80;;;;;;5094324;28;20916;-44
2022/06/02 09:10:14;;;;;;;3.57;1.80;;;27.90;39.40;;;;;;5092745;28;20463;-48
2022/06/02 09:12:50;;;;;;;5.83;2.00;;;28.50;38.80;;;;;;5067308;28;20426;-49
2022/06/02 09:15:46;;;;;;;2.70;2.10;;;29.00;37.30;;;;;;5093180;28;20693;-49
2022/06/02 09:18:40;;;;;;;3.53;1.77;;;29.30;36.20;;;;;;5091890;28;20438;-48
2022/06/02 09:21:08;;;;;;;3.33;1.60;;;29.80;35.90;;;;;;5092607;28;20438;-48
2022/06/02 09:23:39;;;;;;;4.93;2.10;;;30.10;34.40;;;;;;5093281;28;20497;-48
2022/06/02 09:26:22;;;;;;;2.70;1.50;;;30.40;35.50;;;;;;5090587;28;20882;-48
2022/06/02 09:28:56;;;;;;;2.23;1.87;;;30.80;34.20;;;;;;5087249;28;20737;-48
2022/06/02 09:31:40;;;;;;;1.90;1.70;;;30.60;34.50;;;;;;5091751;28;20448;-46
2022/06/02 09:34:21;;;;;;;2.73;1.90;;;30.40;35.20;;;;;;5092433;28;20408;-47
2022/06/02 09:37:08;;;;;;;3.53;1.70;;;30.00;34.00;;;;;;5094252;28;20798;-50
2022/06/02 09:39:37;;;;;;;4.63;1.70;;;29.60;34.90;;;;;;5094066;28;20835;-46
2022/06/02 09:42:22;;;;;;;4.40;1.87;;;29.60;34.30;;;;;;5095314;28;20729;-47
2022/06/02 09:44:51;;;;;;;4.07;1.60;;;29.10;34.20;;;;;;5097332;28;20786;-47
2022/06/02 09:47:35;;;;;;;2.30;1.50;;;29.00;34.40;;;;;;5099151;28;20406;-46
2022/06/02 09:50:24;;;;;;;2.23;1.93;;;29.00;35.10;;;;;;5097772;28;20971;-46
2022/06/02 09:53:19;;;;;;;4.73;2.17;;;28.70;34.50;;;;;;5099655;28;20414;-47
2022/06/02 09:56:05;;;;;;;2.60;1.70;;;28.60;34.90;;;;;;5099448;28;20426;-49
2022/06/02 09:58:53;;;;;;;3.20;1.83;;;28.50;35.30;;;;;;5083623;28;20414;-48
2022/06/02 10:01:21;;;;;;;3.10;1.80;;;28.50;35.20;;;;;;5096041;28;20418;-51
2022/06/02 10:04:07;;;;;;;5.80;1.97;;;28.30;35.50;;;;;;5097323;28;20407;-48
2022/06/02 10:07:13;;;;;;;3.20;1.67;;;28.70;35.70;;;;;;5094995;28;20461;-51
2022/06/02 10:10:00;;;;;;;3.63;1.87;;;29.20;35.60;;;;;;5075209;28;20718;-48
2022/06/02 10:15:40;;;;;;;2.13;1.63;;;29.80;34.20;;;;;;5076361;28;20389;-47
2022/06/02 10:18:34;;;;;;;3.80;1.60;;;29.50;35.10;;;;;;5076129;28;20420;-48
2022/06/02 10:21:43;;;;;;;1.50;1.40;;;29.00;33.00;;;;;;5073991;28;20419;-51
2022/06/02 10:24:33;;;;;;;2.77;1.53;;;28.50;34.20;;;;;;5075585;28;20478;-48
2022/06/02 10:27:23;;;;;;;2.40;1.90;;;28.60;34.50;;;;;;5077874;28;20866;-47
2022/06/02 10:29:56;;;;;;;3.33;2.00;;;29.20;35.30;;;;;;5074767;28;20529;-45
2022/06/02 10:32:51;;;;;;;2.47;1.80;;;29.80;35.10;;;;;;5076456;28;20466;-56
2022/06/02 10:35:23;;;;;;;2.17;1.87;;;30.40;34.50;;;;;;5076490;28;20423;-48
2022/06/02 10:38:03;;;;;;;2.23;1.97;;;30.80;33.90;;;;;;5076763;28;20849;-49
2022/06/02 10:40:50;;;;;;;2.63;2.30;;;31.00;33.50;;;;;;5089055;28;20805;-49
2022/06/02 10:43:34;;;;;;;5.60;2.33;;;31.10;32.60;;;;;;5096943;28;20421;-47
2022/06/02 10:46:18;;;;;;;2.10;1.90;;;31.00;32.90;;;;;;5095724;28;20675;-45
2022/06/02 10:49:15;;;;;;;4.23;2.40;;;30.80;32.40;;;;;;5095720;28;20461;-46
2022/06/02 10:52:14;;;;;;;5.10;1.80;;;30.40;33.00;;;;;;5095846;28;20481;-47
2022/06/02 10:55:34;;;;;;;2.20;2.00;;;30.60;34.50;;;;;;5095834;28;20403;-47
2022/06/02 10:58:13;;;;;;;3.57;2.70;;;31.20;33.80;;;;;;4996475;28;20664;-48
2022/06/02 11:01:17;;;;;;;3.00;2.40;;;31.10;32.60;;;;;;5094315;28;20459;-47
2022/06/02 11:03:51;;;;;;;4.70;2.27;;;30.20;33.20;;;;;;5095368;28;20739;-46
2022/06/02 11:06:53;;;;;;;2.90;2.10;;;30.20;33.90;;;;;;5096186;28;20573;-46
2022/06/02 11:09:39;;;;;;;2.70;2.50;;;30.60;33.30;;;;;;5093187;28;20406;-46
2022/06/02 11:12:26;;;;;;;2.63;2.07;;;30.50;33.30;;;;;;5077880;28;20439;-46
2022/06/02 11:14:51;;;;;;;3.20;2.30;;;30.30;34.10;;;;;;5095415;28;20414;-46
2022/06/02 11:17:26;;;;;;;4.10;2.40;;;30.80;33.80;;;;;;5094532;28;20809;-48
2022/06/02 11:20:36;;;;;;;4.37;2.13;;;31.20;33.80;;;;;;5094843;28;20179;-47
2022/06/02 11:23:11;;;;;;;3.33;2.20;;;31.10;32.90;;;;;;5095859;28;20498;-46
2022/06/02 11:26:14;;;;;;;2.37;1.90;;;30.80;32.60;;;;;;5093541;28;20816;-46
2022/06/02 11:29:04;;;;;;;2.50;2.30;;;30.90;34.10;;;;;;5092841;28;20433;-45
2022/06/02 11:31:36;;;;;;;3.13;2.30;;;31.50;33.50;;;;;;5093226;28;20497;-45
2022/06/02 11:34:02;;;;;;;2.43;2.23;;;32.10;32.90;;;;;;5093760;28;20478;-47
2022/06/02 11:36:39;;;;;;;3.33;2.13;;;32.40;31.60;;;;;;5093779;28;20485;-48
2022/06/02 11:39:31;;;;;;;2.50;2.00;;;31.80;32.00;;;;;;5093927;28;20172;-48
2022/06/02 11:42:36;;;;;;;3.47;1.77;;;30.90;32.30;;;;;;5090069;28;20397;-45
2022/06/02 11:45:17;;;;;;;3.30;2.17;;;30.10;33.00;;;;;;5057671;28;20391;-48
2022/06/02 11:48:01;;;;;;;3.20;2.33;;;30.30;34.60;;;;;;5094784;28;20675;-47
2022/06/02 11:51:03;;;;;;;5.23;2.20;;;31.00;33.80;;;;;;5093839;28;20505;-47
2022/06/02 11:53:47;;;;;;;1.80;1.40;;;31.70;33.20;;;;;;5095409;28;20409;-49
2022/06/02 11:56:15;;;;;;;2.57;1.83;;;32.60;33.00;;;;;;5093529;28;20555;-50
2022/06/02 11:58:51;;;;;;;2.13;1.93;;;33.30;32.20;;;;;;5092742;28;20447;-48
2022/06/02 12:01:40;;;;;;;2.30;2.10;;;33.70;31.40;;;;;;5092896;28;20647;-51
2022/06/02 12:04:17;;;;;;;2.27;2.07;;;33.40;30.70;;;;;;5100012;28;20472;-46
2022/06/02 12:06:55;;;;;;;3.00;2.00;;;33.00;30.90;;;;;;5095966;28;20498;-51
2022/06/02 12:09:45;;;;;;;4.83;2.07;;;32.80;32.30;;;;;;5095090;28;20400;-51
2022/06/02 12:12:14;;;;;;;3.33;2.00;;;32.90;32.00;;;;;;5090219;28;20491;-48
2022/06/02 12:14:52;;;;;;;4.23;2.20;;;32.50;31.20;;;;;;5094711;28;20412;-48
2022/06/02 12:17:39;;;;;;;2.73;1.90;;;32.20;32.70;;;;;;5094616;28;20403;-51
2022/06/02 12:20:33;;;;;;;2.10;1.97;;;32.10;32.70;;;;;;5095730;28;20457;-50
2022/06/02 12:23:14;;;;;;;6.53;2.60;;;32.00;32.30;;;;;;5050851;28;20413;-54
2022/06/02 12:25:54;;;;;;;2.07;1.87;;;31.90;32.90;;;;;;5095821;28;20463;-46
2022/06/02 12:28:36;;;;;;;2.50;2.30;;;31.80;33.00;;;;;;5095015;28;20736;-53
2022/06/02 12:31:34;;;;;;;2.37;1.93;;;31.90;33.00;;;;;;5096381;28;20411;-51
2022/06/02 12:34:22;;;;;;;2.40;2.10;;;31.90;32.80;;;;;;5097113;28;20680;-52
2022/06/02 12:37:03;;;;;;;2.23;2.00;;;31.70;32.20;;;;;;5096598;28;20513;-47
2022/06/02 12:39:51;;;;;;;3.00;2.70;;;31.60;32.70;;;;;;5100324;28;20436;-46
2022/06/02 12:42:31;;;;;;;4.80;2.00;;;31.80;33.20;;;;;;5117165;28;20813;-49
2022/06/02 12:45:09;;;;;;;3.37;2.20;;;32.00;33.30;;;;;;5117230;28;20479;-52
2022/06/02 12:48:02;;;;;;;3.17;2.30;;;32.30;32.30;;;;;;5117032;28;20490;-50
2022/06/02 12:51:00;;;;;;;2.60;2.40;;;32.30;32.10;;;;;;5116198;28;20441;-53
2022/06/02 12:53:35;;;;;;;3.30;2.47;;;32.20;32.80;;;;;;5114697;28;20479;-48
2022/06/02 12:56:20;;;;;;;3.20;2.50;;;32.00;31.80;;;;;;5114633;28;20841;-49
2022/06/02 12:59:29;;;;;;;2.07;1.90;;;31.60;32.50;;;;;;5116451;28;20380;-52
2022/06/02 13:02:17;;;;;;;2.23;2.00;;;31.40;33.60;;;;;;5072503;28;20459;-48
2022/06/02 13:04:52;;;;;;;3.30;2.07;;;31.60;33.60;;;;;;5072122;28;20390;-51
2022/06/02 13:07:54;;;;;;;2.50;2.20;;;31.60;33.20;;;;;;5100446;28;20412;-49
2022/06/02 13:10:37;;;;;;;5.97;2.20;;;31.70;33.40;;;;;;5106378;28;20434;-49
2022/06/02 13:13:39;;;;;;;4.90;2.20;;;31.70;33.10;;;;;;5099965;28;20418;-49
2022/06/02 13:16:26;;;;;;;2.40;2.20;;;31.70;32.90;;;;;;5097938;28;20786;-50
2022/06/02 13:19:16;;;;;;;3.27;2.80;;;31.50;33.10;;;;;;5099818;28;20789;-51
2022/06/02 13:21:57;;;;;;;2.80;2.10;;;31.40;32.70;;;;;;5098533;28;20714;-50
2022/06/02 13:24:44;;;;;;;2.40;2.20;;;31.20;33.60;;;;;;5078168;28;20739;-50
2022/06/02 13:27:37;;;;;;;2.97;2.43;;;31.20;33.50;;;;;;5102278;28;20463;-50
2022/06/02 13:30:22;;;;;;;3.80;2.13;;;30.80;32.80;;;;;;5120057;28;20403;-48
2022/06/02 13:33:38;;;;;;;3.40;2.50;;;30.30;33.40;;;;;;5120766;28;20956;-47
2022/06/02 13:36:04;;;;;;;2.63;2.20;;;29.80;34.00;;;;;;5076774;28;20426;-49
2022/06/02 13:38:55;;;;;;;2.10;1.90;;;29.50;35.50;;;;;;5078101;28;20401;-52
2022/06/02 13:41:58;;;;;;;2.33;2.13;;;29.40;35.30;;;;;;5071991;28;20236;-48
2022/06/02 13:44:49;;;;;;;2.37;2.17;;;29.20;35.80;;;;;;5079779;28;20677;-47
2022/06/02 13:47:43;;;;;;;3.20;2.10;;;29.00;35.90;;;;;;5079376;28;20431;-50
2022/06/02 13:50:46;;;;;;;2.67;1.87;;;28.90;36.40;;;;;;5078581;28;20435;-51
2022/06/02 13:53:21;;;;;;;3.70;2.40;;;28.80;35.90;;;;;;5103880;28;20405;-46
2022/06/02 13:59:09;;;;;;;4.10;2.43;;;28.90;36.70;;;;;;5118303;28;20686;-52
2022/06/02 14:01:47;;;;;;;9.20;3.17;;;29.50;36.20;;;;;;5118757;28;20527;-48
2022/06/02 14:04:31;;;;;;;2.87;2.30;;;30.10;35.70;;;;;;5116697;28;20671;-48
2022/06/02 14:07:20;;;;;;;4.47;2.53;;;30.60;34.60;;;;;;5117330;28;20430;-47
2022/06/02 14:10:06;;;;;;;2.73;2.43;;;30.80;35.60;;;;;;5112608;28;21170;-47
2022/06/02 14:12:38;;;;;;;5.10;2.57;;;31.10;35.00;;;;;;5096915;28;20877;-49
2022/06/02 14:15:13;;;;;;;3.33;2.50;;;30.90;33.60;;;;;;5097660;28;20401;-48
2022/06/02 14:17:56;;;;;;;3.20;2.57;;;30.70;34.50;;;;;;5096507;28;20398;-47
2022/06/02 14:20:41;;;;;;;2.73;2.30;;;30.40;35.10;;;;;;5097027;28;20473;-51
2022/06/02 14:23:19;;;;;;;2.80;2.20;;;30.00;35.50;;;;;;5065462;28;20387;-49
2022/06/02 14:26:17;;;;;;;2.60;2.40;;;29.60;35.20;;;;;;5096039;28;20419;-47
2022/06/02 14:28:51;;;;;;;2.73;2.13;;;29.00;35.50;;;;;;5096174;28;20458;-50
2022/06/02 14:31:28;;;;;;;3.83;2.57;;;28.50;35.80;;;;;;5097595;28;20456;-45
2022/06/02 14:34:21;;;;;;;2.47;2.23;;;28.20;35.90;;;;;;5095433;28;20406;-50